EKSB/SGD METAR and TAF weather

Enter ICAO airport designator
Station Type Date Time Source
EKSB METAR 2019/08/25 07:50 UTC NOAA

EKSB 250750Z AUTO 10010KT 9999NDV NCD 22/17 Q1022


Station Type Date Time Source
EKSB Decoded METAR 2019/08/25 07:50 UTC NOAA

Station name not available
Aug 25, 2019 - 03:50 AM EDT / 2019.08.25 0750 UTC
Wind: from the E (100 degrees) at 12 MPH (10 KT):0
Temperature: 71 F (22 C)
Dew Point: 62 F (17 C)
Relative Humidity: 73%
Pressure (altimeter): 30.18 in. Hg (1022 hPa)
ob: EKSB 250750Z AUTO 10010KT 9999NDV NCD 22/17 Q1022
cycle: 8

Station Type Date Time Source
EKSB TAF 2016/01/27 09:03 UTC NOAA

TAF TAF EKSB 270856Z 2709/2721 23022KT 5000 -RA BR BKN008
TEMPO 2709/2721 24025G40KT 2000 RADZ BKN004

Example: see airport list